Time;durP1;ratioP1;P1;durP2;ratioP2;P2;SDS_P1;SDS_P2;PMS_P1;PMS_P2;Temp;Humidity;BMP_temperature;BMP_pressure;BME280_temperature;BME280_humidity;BME280_pressure;Samples;Min_cycle;Max_cycle;Signal;HPM_P1;HPM_P2
2022/11/17 00:01:49;;;;;;;3.95;3.65;;;;;;;2.38;85.25;99622.59;1689760;84;25614;-45
2022/11/17 00:04:15;;;;;;;5.60;3.67;;;;;;;2.36;84.73;99630.88;1689901;84;25420;-44
2022/11/17 00:06:42;;;;;;;4.12;3.35;;;;;;;2.34;84.11;99641.02;1689839;84;25589;-44
2022/11/17 00:09:16;;;;;;;5.12;3.62;;;;;;;2.30;83.93;99631.97;1689795;83;25427;-45
2022/11/17 00:14:31;;;;;;;5.05;3.98;;;;;;;2.27;84.15;99638.38;1689832;84;25451;-45
2022/11/17 00:17:00;;;;;;;4.12;3.40;;;;;;;2.27;83.84;99637.05;1689896;84;25492;-45
2022/11/17 00:21:55;;;;;;;5.00;3.40;;;;;;;2.19;83.74;99639.17;1620021;88;25792;-44
2022/11/17 00:24:22;;;;;;;4.97;3.52;;;;;;;2.19;83.70;99647.17;1619923;88;27422;-44
2022/11/17 00:27:01;;;;;;;4.35;3.05;;;;;;;2.18;83.82;99638.10;1619757;88;25706;-44
2022/11/17 00:29:29;;;;;;;4.70;3.75;;;;;;;2.17;83.57;99643.98;1619995;88;25561;-46
2022/11/17 00:34:41;;;;;;;3.60;3.12;;;;;;;2.11;82.66;99645.59;1619851;87;25498;-44
2022/11/17 00:37:10;;;;;;;3.37;3.08;;;;;;;2.09;82.87;99648.52;1619861;88;27670;-45
2022/11/17 00:39:36;;;;;;;3.75;2.95;;;;;;;2.07;82.78;99642.66;1619869;88;25816;-45
2022/11/17 00:42:03;;;;;;;4.37;3.00;;;;;;;2.03;82.35;99651.73;1619869;88;25560;-45
2022/11/17 00:44:30;;;;;;;4.03;3.20;;;;;;;2.04;82.22;99645.86;1619793;88;25662;-45
2022/11/17 00:46:57;;;;;;;4.25;3.70;;;;;;;2.01;82.39;99645.05;1619427;88;25610;-46
2022/11/17 00:49:26;;;;;;;3.25;2.95;;;;;;;1.98;82.23;99650.41;1618216;88;27272;-45
2022/11/17 00:51:54;;;;;;;3.72;3.30;;;;;;;1.96;82.02;99641.88;1618313;88;25999;-46
2022/11/17 00:54:21;;;;;;;4.10;3.35;;;;;;;1.93;82.10;99641.61;1618230;88;25786;-45
2022/11/17 00:56:48;;;;;;;7.62;4.85;;;;;;;1.90;81.82;99642.14;1618363;88;25724;-45
2022/11/17 00:59:14;;;;;;;5.25;3.67;;;;;;;1.88;81.84;99644.28;1647096;84;26015;-45
2022/11/17 01:01:42;;;;;;;5.62;4.00;;;;;;;1.88;81.87;99652.28;1689841;84;28048;-45
2022/11/17 01:04:08;;;;;;;4.47;3.80;;;;;;;1.85;82.10;99646.39;1689753;84;25652;-44
2022/11/17 01:06:39;;;;;;;5.10;4.37;;;;;;;1.85;81.96;99645.60;1689827;84;25209;-45
2022/11/17 01:09:19;;;;;;;4.37;3.72;;;;;;;1.83;82.09;99650.41;1686748;83;25720;-45
2022/11/17 01:11:46;;;;;;;;;;;;;;;1.84;82.13;99647.48;1687205;85;25561;-45
2022/11/17 01:14:21;;;;;;;5.05;3.65;;;;;;;1.83;81.94;99637.08;1684658;85;27439;-45
2022/11/17 01:16:47;;;;;;;5.78;4.70;;;;;;;1.79;82.07;99644.81;1684542;85;27252;-45
2022/11/17 01:19:15;;;;;;;6.72;4.85;;;;;;;1.80;82.20;99648.27;1684610;85;25481;-45
2022/11/17 01:21:43;;;;;;;6.28;4.78;;;;;;;1.80;82.26;99645.06;1684557;85;25481;-45
2022/11/17 01:24:12;;;;;;;5.83;4.42;;;;;;;1.80;82.28;99645.60;1684634;85;25583;-46
2022/11/17 01:26:39;;;;;;;8.43;5.15;;;;;;;1.81;82.35;99644.00;1684749;85;26875;-45
2022/11/17 01:29:08;;;;;;;5.42;4.35;;;;;;;1.82;82.40;99640.80;1684579;85;25411;-46
2022/11/17 01:31:38;;;;;;;7.55;4.35;;;;;;;1.79;82.06;99643.48;1684623;85;25569;-46
2022/11/17 01:34:06;;;;;;;7.00;4.28;;;;;;;1.78;81.86;99640.53;1684600;85;25658;-44
2022/11/17 01:39:27;;;;;;;5.25;4.17;;;;;;;1.74;81.99;99642.14;1684572;85;27419;-47
2022/11/17 01:41:55;;;;;;;6.50;4.60;;;;;;;1.74;81.98;99638.66;1684642;85;25589;-47
2022/11/17 01:44:55;;;;;;;7.33;5.33;;;;;;;1.73;81.90;99630.41;1684584;85;25438;-44
2022/11/17 01:47:51;;;;;;;6.40;4.67;;;;;;;1.69;81.67;99638.14;1684566;85;25684;-45
2022/11/17 01:50:26;;;;;;;5.72;3.92;;;;;;;1.67;81.76;99641.06;1683963;84;25550;-45
2022/11/17 01:52:58;;;;;;;6.45;3.65;;;;;;;1.66;81.62;99638.13;1684587;84;28303;-45
2022/11/17 01:55:46;;;;;;;6.72;4.58;;;;;;;1.62;81.21;99630.94;1684578;84;25622;-45
2022/11/17 01:58:20;;;;;;;4.80;4.22;;;;;;;1.58;81.30;99632.52;1684580;85;25566;-46
2022/11/17 02:00:47;;;;;;;6.15;4.53;;;;;;;1.57;81.51;99637.06;1684707;85;25569;-46
2022/11/17 02:03:14;;;;;;;5.53;4.28;;;;;;;1.55;81.32;99638.38;1684546;85;25517;-46
2022/11/17 02:05:57;;;;;;;5.00;4.33;;;;;;;1.54;81.40;99646.12;1684639;85;27428;-46
2022/11/17 02:08:28;;;;;;;5.30;4.72;;;;;;;1.53;81.35;99632.52;1684245;84;25551;-47
2022/11/17 02:10:55;;;;;;;5.83;4.03;;;;;;;1.51;81.49;99639.44;1724529;83;25582;-46
2022/11/17 02:13:22;;;;;;;5.20;4.42;;;;;;;1.52;81.40;99630.39;1682327;85;25697;-46
2022/11/17 02:15:48;;;;;;;5.87;4.40;;;;;;;1.51;81.46;99634.66;1724605;83;25559;-46
2022/11/17 02:18:16;;;;;;;5.58;4.30;;;;;;;1.48;81.19;99622.13;1682372;85;27389;-45
2022/11/17 02:20:54;;;;;;;6.20;4.22;;;;;;;1.47;81.30;99629.84;1724436;83;25401;-46
2022/11/17 02:23:38;;;;;;;5.60;4.12;;;;;;;1.47;81.27;99627.72;1681933;84;25466;-45
2022/11/17 02:26:34;;;;;;;4.25;3.85;;;;;;;1.45;81.34;99626.65;1724525;83;25633;-45
2022/11/17 02:29:27;;;;;;;5.03;3.77;;;;;;;1.43;81.25;99623.45;1682495;85;25599;-45
2022/11/17 02:32:07;;;;;;;6.42;4.60;;;;;;;1.41;81.14;99616.77;1724533;83;27352;-45
2022/11/17 02:34:51;;;;;;;5.37;3.80;;;;;;;1.38;81.24;99610.13;1682264;85;25470;-45
2022/11/17 02:37:34;;;;;;;4.50;3.37;;;;;;;1.37;81.09;99609.84;1723359;83;25562;-46
2022/11/17 02:40:15;;;;;;;6.20;3.80;;;;;;;1.34;81.14;99613.03;1682341;85;25615;-45
2022/11/17 02:45:53;;;;;;;4.62;4.12;;;;;;;1.30;81.25;99610.64;1682373;85;27387;-45
2022/11/17 02:48:36;;;;;;;5.15;3.83;;;;;;;1.31;81.33;99613.55;1724459;83;25641;-45
2022/11/17 02:51:06;;;;;;;4.85;4.03;;;;;;;1.29;81.11;99612.51;1651206;86;25491;-45
2022/11/17 02:53:33;;;;;;;5.00;4.12;;;;;;;1.28;81.22;99607.44;1651154;86;25709;-45
2022/11/17 02:56:01;;;;;;;6.85;4.65;;;;;;;1.27;81.05;99605.83;1651210;86;25745;-45
2022/11/17 02:58:28;;;;;;;5.35;4.00;;;;;;;1.23;81.19;99608.22;1651192;86;29669;-49
2022/11/17 03:01:23;;;;;;;5.97;3.83;;;;;;;1.21;81.14;99605.53;1651096;86;25640;-49
2022/11/17 03:04:34;;;;;;;5.50;4.30;;;;;;;1.18;81.21;99605.55;1651221;86;25486;-45
2022/11/17 03:07:40;;;;;;;7.37;4.37;;;;;;;1.16;81.26;99614.84;1651090;86;25695;-46
2022/11/17 03:10:18;;;;;;;6.00;4.22;;;;;;;1.17;81.43;99604.48;1642186;86;25609;-45
2022/11/17 03:13:01;;;;;;;6.62;3.87;;;;;;;1.16;81.44;99602.86;1637112;87;27314;-44
2022/11/17 03:15:45;;;;;;;4.78;3.60;;;;;;;1.15;81.57;99607.94;1637447;87;25700;-45
2022/11/17 03:18:48;;;;;;;6.25;4.25;;;;;;;1.16;81.55;99612.19;1637616;87;25443;-47
2022/11/17 03:21:40;;;;;;;8.10;4.35;;;;;;;1.14;81.47;99615.11;1621025;88;25764;-46
2022/11/17 03:24:23;;;;;;;6.60;3.90;;;;;;;1.14;81.72;99612.45;1605730;89;25655;-44
2022/11/17 03:27:00;;;;;;;4.78;3.80;;;;;;;1.15;81.72;99616.72;1619127;87;27748;-45
2022/11/17 03:29:30;;;;;;;5.87;4.08;;;;;;;1.16;81.79;99623.66;1656745;86;25876;-47
2022/11/17 03:32:01;;;;;;;7.17;3.95;;;;;;;1.17;81.80;99621.25;1638440;87;25799;-48
2022/11/17 03:34:33;;;;;;;5.72;3.33;;;;;;;1.18;81.86;99624.20;1664093;86;25704;-47
2022/11/17 03:37:04;;;;;;;4.25;3.17;;;;;;;1.21;81.80;99622.86;1638465;87;25644;-47
2022/11/17 03:39:35;;;;;;;4.35;3.95;;;;;;;1.19;81.77;99616.48;1664063;86;27351;-47
2022/11/17 03:42:27;;;;;;;4.35;3.30;;;;;;;1.20;81.77;99617.27;1638372;87;25957;-44
2022/11/17 03:45:26;;;;;;;5.12;3.52;;;;;;;1.22;81.82;99618.59;1664058;86;25600;-45
2022/11/17 03:48:04;;;;;;;3.62;3.20;;;;;;;1.20;81.62;99614.61;1638469;87;25692;-47
2022/11/17 03:50:36;;;;;;;5.53;3.70;;;;;;;1.17;81.54;99615.13;1664026;85;25454;-46
2022/11/17 03:53:04;;;;;;;5.75;3.52;;;;;;;1.17;81.63;99621.79;1638010;87;27492;-45
2022/11/17 03:55:42;;;;;;;5.45;4.00;;;;;;;1.15;81.63;99626.59;1663980;86;25534;-44
2022/11/17 03:58:13;;;;;;;5.03;4.00;;;;;;;1.16;81.74;99618.84;1670704;84;25424;-44
2022/11/17 04:00:42;;;;;;;5.85;3.85;;;;;;;1.15;81.78;99616.72;1694479;84;26264;-44
2022/11/17 04:03:08;;;;;;;4.35;3.50;;;;;;;1.16;81.75;99623.66;1694501;84;25664;-44
2022/11/17 04:05:34;;;;;;;6.58;4.00;;;;;;;1.15;81.76;99616.72;1694409;84;27340;-45
2022/11/17 04:08:00;;;;;;;3.35;3.05;;;;;;;1.16;81.87;99614.34;1694367;84;25791;-44
2022/11/17 04:10:26;;;;;;;8.60;3.60;;;;;;;1.17;81.95;99615.13;1687925;84;25502;-44
2022/11/17 04:15:55;;;;;;;3.70;3.15;;;;;;;1.16;81.71;99613.52;1684623;85;25460;-48
2022/11/17 04:18:23;;;;;;;3.67;3.22;;;;;;;1.15;81.65;99615.39;1727156;83;27339;-47
2022/11/17 04:20:53;;;;;;;4.53;3.35;;;;;;;1.12;81.52;99617.24;1684583;85;25414;-48
2022/11/17 04:23:20;;;;;;;4.95;3.60;;;;;;;1.10;81.54;99624.16;1727190;83;25507;-47
2022/11/17 04:28:41;;;;;;;5.17;3.12;;;;;;;1.09;81.56;99618.58;1727241;83;25610;-48
2022/11/17 04:31:28;;;;;;;6.65;3.50;;;;;;;1.07;81.60;99616.72;1684713;85;27914;-49
2022/11/17 04:33:59;;;;;;;4.10;3.30;;;;;;;1.08;81.67;99624.96;1727116;83;25567;-45
2022/11/17 04:36:33;;;;;;;4.22;3.80;;;;;;;1.09;81.78;99624.42;1684749;85;25624;-45
2022/11/17 04:39:00;;;;;;;5.75;3.05;;;;;;;1.08;81.64;99621.50;1727086;83;25635;-45
2022/11/17 04:44:16;;;;;;;3.37;2.98;;;;;;;1.10;81.53;99624.70;1727193;83;27345;-44
2022/11/17 04:46:44;;;;;;;3.60;3.00;;;;;;;1.09;81.55;99623.09;1684671;85;25433;-44
2022/11/17 04:49:14;;;;;;;5.08;3.50;;;;;;;1.08;81.54;99620.17;1727201;83;25578;-45
2022/11/17 04:51:41;;;;;;;3.65;3.00;;;;;;;1.10;81.57;99624.16;1684712;85;25614;-44
2022/11/17 04:54:10;;;;;;;6.35;3.27;;;;;;;1.08;81.54;99628.95;1727240;83;25617;-44
2022/11/17 04:56:38;;;;;;;4.22;3.47;;;;;;;1.09;81.48;99625.75;1684603;85;29536;-44
2022/11/17 04:59:06;;;;;;;3.62;3.25;;;;;;;1.10;81.48;99621.50;1727088;83;25539;-44
2022/11/17 05:01:33;;;;;;;4.00;3.30;;;;;;;1.09;81.35;99629.23;1684653;85;25430;-45
2022/11/17 05:04:03;;;;;;;4.37;2.77;;;;;;;1.11;81.43;99628.44;1727119;83;25705;-44
2022/11/17 05:06:34;;;;;;;3.85;3.15;;;;;;;1.11;81.38;99630.31;1684635;85;25594;-45
2022/11/17 05:09:08;;;;;;;5.90;3.00;;;;;;;1.14;81.54;99627.09;1727207;83;27351;-44
2022/11/17 05:14:23;;;;;;;3.70;3.15;;;;;;;1.15;81.30;99625.25;1684658;85;25651;-44
2022/11/17 05:17:04;;;;;;;3.80;3.02;;;;;;;1.16;81.17;99627.66;1684733;85;26375;-45
2022/11/17 05:19:43;;;;;;;4.20;3.10;;;;;;;1.15;81.14;99628.70;1684665;85;25160;-45
2022/11/17 05:24:59;;;;;;;5.55;3.10;;;;;;;1.13;80.86;99628.17;1684546;85;25526;-44
2022/11/17 05:27:26;;;;;;;5.45;3.05;;;;;;;1.12;81.00;99617.24;1684593;85;25565;-44
2022/11/17 05:29:52;;;;;;;5.15;2.95;;;;;;;1.12;80.86;99619.91;1684550;85;25628;-45
2022/11/17 05:32:19;;;;;;;4.22;3.08;;;;;;;1.13;80.89;99623.39;1684616;85;25569;-44
2022/11/17 05:34:45;;;;;;;4.72;3.50;;;;;;;1.13;80.99;99624.18;1684621;84;28056;-45
2022/11/17 05:37:12;;;;;;;4.40;3.35;;;;;;;1.13;80.97;99626.84;1684532;85;25496;-45
2022/11/17 05:39:38;;;;;;;5.08;3.35;;;;;;;1.14;80.94;99627.09;1684635;85;25423;-44
2022/11/17 05:42:05;;;;;;;4.65;3.35;;;;;;;1.15;80.70;99627.37;1684600;84;25702;-46
2022/11/17 05:44:31;;;;;;;5.30;3.20;;;;;;;1.14;80.72;99626.30;1684651;85;25499;-44
2022/11/17 05:46:58;;;;;;;7.42;3.58;;;;;;;1.13;80.67;99625.52;1684625;84;26477;-45
2022/11/17 05:49:24;;;;;;;6.00;4.10;;;;;;;1.11;80.64;99620.45;1684560;84;25615;-44
2022/11/17 05:51:50;;;;;;;5.65;3.70;;;;;;;1.10;80.69;99622.83;1684666;85;25399;-45
2022/11/17 05:54:17;;;;;;;7.40;4.80;;;;;;;1.12;80.51;99623.91;1684550;85;27731;-44
2022/11/17 05:57:07;;;;;;;12.05;9.25;;;;;;;1.10;80.53;99630.82;1684607;85;25398;-44
2022/11/17 05:59:44;;;;;;;8.23;7.03;;;;;;;1.10;80.55;99630.03;1652258;86;27424;-45
2022/11/17 06:02:22;;;;;;;6.30;4.60;;;;;;;1.09;80.59;99627.91;1691974;84;25600;-46
2022/11/17 06:04:50;;;;;;;4.50;3.33;;;;;;;1.11;80.51;99636.43;1689957;84;25421;-45
2022/11/17 06:07:18;;;;;;;3.92;3.30;;;;;;;1.09;80.46;99635.90;1717013;83;25618;-44
2022/11/17 06:09:46;;;;;;;4.72;3.40;;;;;;;1.08;80.25;99641.48;1684330;84;25450;-44
2022/11/17 06:12:14;;;;;;;3.80;3.27;;;;;;;1.05;80.20;99636.67;1724652;83;27455;-46
2022/11/17 06:14:40;;;;;;;4.42;3.50;;;;;;;1.04;80.03;99641.72;1682268;85;25656;-45
2022/11/17 06:17:17;;;;;;;5.53;4.00;;;;;;;1.02;79.95;99643.34;1724526;83;25451;-44
2022/11/17 06:19:47;;;;;;;4.72;3.37;;;;;;;1.01;79.78;99651.59;1682349;85;25608;-46
2022/11/17 06:22:14;;;;;;;5.40;3.55;;;;;;;1.00;79.83;99653.42;1724526;83;25307;-45
2022/11/17 06:24:44;;;;;;;6.40;4.90;;;;;;;1.01;80.08;99655.05;1682367;85;27304;-47
2022/11/17 06:27:13;;;;;;;4.83;3.62;;;;;;;1.03;80.05;99647.59;1724534;83;25572;-47
2022/11/17 06:29:41;;;;;;;5.42;3.77;;;;;;;1.05;79.93;99657.44;1682601;85;25653;-46
2022/11/17 06:32:09;;;;;;;7.83;3.50;;;;;;;1.05;79.85;99652.66;1724493;83;25613;-46
2022/11/17 06:34:36;;;;;;;5.00;3.72;;;;;;;1.06;79.61;99655.59;1682380;85;25446;-46
2022/11/17 06:37:02;;;;;;;6.55;4.10;;;;;;;1.02;79.12;99654.50;1724535;83;27418;-45
2022/11/17 06:39:28;;;;;;;4.53;3.42;;;;;;;0.98;78.99;99648.90;1682247;85;25551;-44
2022/11/17 06:41:55;;;;;;;4.20;3.47;;;;;;;0.97;78.72;99655.81;1724587;83;25464;-45
2022/11/17 06:44:21;;;;;;;4.37;3.98;;;;;;;0.91;78.51;99649.67;1682371;85;25693;-45
2022/11/17 06:46:47;;;;;;;4.97;3.98;;;;;;;0.91;78.43;99662.99;1724525;83;25479;-46
2022/11/17 06:49:13;;;;;;;4.00;3.60;;;;;;;0.86;78.34;99660.31;1682327;85;27359;-46
2022/11/17 06:51:39;;;;;;;4.60;4.03;;;;;;;0.87;78.15;99679.20;1724425;83;25452;-46
2022/11/17 06:54:08;;;;;;;3.95;3.52;;;;;;;0.82;78.03;99669.86;1682257;85;25661;-47
2022/11/17 06:56:34;;;;;;;5.47;3.77;;;;;;;0.79;77.79;99661.88;1682258;85;25716;-46
2022/11/17 06:59:00;;;;;;;4.90;4.08;;;;;;;0.77;77.92;99660.52;1724540;83;25469;-46
2022/11/17 07:01:27;;;;;;;6.00;4.20;;;;;;;0.77;78.13;99663.17;1682301;85;27369;-50
2022/11/17 07:03:53;;;;;;;5.33;3.87;;;;;;;0.73;77.83;99662.39;1724355;83;25803;-47
2022/11/17 07:06:19;;;;;;;7.20;4.53;;;;;;;0.69;77.78;99657.30;1682312;85;25801;-47
2022/11/17 07:08:45;;;;;;;5.17;4.22;;;;;;;0.69;77.78;99654.63;1724439;83;25591;-47
2022/11/17 07:11:15;;;;;;;6.90;4.85;;;;;;;0.72;78.10;99655.45;1683515;85;25748;-47
2022/11/17 07:13:43;;;;;;;8.10;5.03;;;;;;;0.75;78.28;99663.47;1684702;85;27355;-46
2022/11/17 07:16:13;;;;;;;8.38;5.10;;;;;;;0.77;78.14;99664.51;1684501;85;25639;-48
2022/11/17 07:18:41;;;;;;;6.92;5.17;;;;;;;0.75;77.89;99658.14;1684563;84;25599;-46
2022/11/17 07:21:12;;;;;;;9.38;5.75;;;;;;;0.74;78.06;99662.64;1684532;85;26163;-46
2022/11/17 07:23:41;;;;;;;6.87;5.00;;;;;;;0.79;78.31;99658.42;1684588;85;27052;-48
2022/11/17 07:26:08;;;;;;;6.20;4.80;;;;;;;0.79;78.10;99648.56;1684739;85;27387;-47
2022/11/17 07:28:35;;;;;;;5.45;4.53;;;;;;;0.78;77.96;99656.27;1684623;85;25617;-46
2022/11/17 07:31:05;;;;;;;5.80;3.95;;;;;;;0.78;77.98;99660.80;1684568;85;25636;-47
2022/11/17 07:33:31;;;;;;;6.97;4.92;;;;;;;0.78;77.89;99654.94;1684470;85;25650;-47
2022/11/17 07:36:08;;;;;;;7.22;4.72;;;;;;;0.78;77.81;99659.47;1684582;85;25648;-47
2022/11/17 07:38:36;;;;;;;6.17;4.90;;;;;;;0.80;77.98;99669.32;1684593;85;27129;-47
2022/11/17 07:41:05;;;;;;;8.05;5.42;;;;;;;0.81;77.99;99672.27;1684482;85;25770;-47
2022/11/17 07:43:33;;;;;;;7.50;5.65;;;;;;;0.81;77.78;99664.28;1684638;85;25414;-47
2022/11/17 07:46:07;;;;;;;7.70;5.10;;;;;;;0.81;77.66;99672.27;1684520;85;25647;-49
2022/11/17 07:48:34;;;;;;;7.17;5.12;;;;;;;0.80;77.54;99682.13;1684623;85;25473;-47
2022/11/17 07:51:04;;;;;;;7.28;5.00;;;;;;;0.79;77.41;99675.19;1684577;85;27193;-48
2022/11/17 07:53:33;;;;;;;6.97;5.33;;;;;;;0.78;77.59;99680.23;1684580;85;25562;-48
2022/11/17 07:56:10;;;;;;;7.00;5.22;;;;;;;0.76;77.34;99677.03;1684819;85;25701;-47
2022/11/17 07:58:37;;;;;;;6.47;4.78;;;;;;;0.76;77.29;99681.56;1684664;85;25834;-47
2022/11/17 08:01:14;;;;;;;12.75;5.30;;;;;;;0.71;77.22;99684.45;1684731;85;25454;-47
2022/11/17 08:03:41;;;;;;;6.97;5.15;;;;;;;0.69;77.11;99685.78;1684615;84;27343;-47
2022/11/17 08:06:11;;;;;;;8.03;5.50;;;;;;;0.67;77.07;99683.91;1684590;85;25635;-47
2022/11/17 08:08:38;;;;;;;8.15;5.35;;;;;;;0.64;77.08;99678.56;1684651;84;25504;-46
2022/11/17 08:11:08;;;;;;;8.23;6.45;;;;;;;0.65;77.28;99683.38;1684583;85;25877;-49
2022/11/17 08:13:35;;;;;;;9.28;5.92;;;;;;;0.65;77.36;99672.19;1684732;85;25581;-48
2022/11/17 08:16:03;;;;;;;7.60;5.37;;;;;;;0.66;77.15;99683.63;1684668;85;27410;-47
2022/11/17 08:18:31;;;;;;;7.92;5.22;;;;;;;0.62;76.87;99678.02;1684613;85;25393;-46
2022/11/17 08:21:08;;;;;;;11.70;5.30;;;;;;;0.59;76.82;99679.86;1684682;85;25657;-49
2022/11/17 08:23:36;;;;;;;7.97;5.20;;;;;;;0.56;76.87;99681.70;1684579;85;25608;-46
2022/11/17 08:26:05;;;;;;;7.30;5.10;;;;;;;0.54;76.82;99679.83;1684677;85;25583;-47
2022/11/17 08:28:32;;;;;;;8.03;5.37;;;;;;;0.54;76.97;99683.83;1684751;84;27309;-47
2022/11/17 08:31:04;;;;;;;8.63;5.15;;;;;;;0.53;77.06;99676.38;1684549;85;25609;-48
2022/11/17 08:33:32;;;;;;;9.60;6.10;;;;;;;0.55;77.09;99682.78;1684706;84;25419;-47
2022/11/17 08:36:03;;;;;;;8.98;6.12;;;;;;;0.54;77.30;99677.17;1684698;84;26220;-47
2022/11/17 08:38:30;;;;;;;9.65;6.47;;;;;;;0.57;77.17;99673.21;1684821;85;25630;-46
2022/11/17 08:41:00;;;;;;;8.75;5.42;;;;;;;0.54;77.06;99677.17;1684620;85;28135;-47
2022/11/17 08:43:28;;;;;;;10.70;6.97;;;;;;;0.54;77.29;99673.18;1684607;84;25345;-47
2022/11/17 08:45:54;;;;;;;9.60;5.87;;;;;;;0.58;77.58;99677.45;1684690;84;25618;-47
2022/11/17 08:48:21;;;;;;;7.80;5.22;;;;;;;0.59;77.45;99673.21;1684341;85;25767;-46
2022/11/17 08:50:48;;;;;;;8.73;5.53;;;;;;;0.60;77.60;99664.18;1683452;85;25973;-47
2022/11/17 08:53:18;;;;;;;8.38;5.83;;;;;;;0.62;77.57;99675.36;1683306;85;27327;-47
2022/11/17 08:55:46;;;;;;;8.98;6.08;;;;;;;0.64;77.49;99675.11;1683185;85;25766;-47
2022/11/17 08:58:12;;;;;;;9.40;6.37;;;;;;;0.63;77.42;99671.66;1683189;85;25978;-47
2022/11/17 09:00:40;;;;;;;10.15;6.37;;;;;;;0.65;77.47;99673.52;1683180;85;26409;-47
2022/11/17 09:03:09;;;;;;;9.35;6.08;;;;;;;0.65;77.39;99673.52;1683233;84;25660;-48
2022/11/17 09:05:47;;;;;;;8.73;5.47;;;;;;;0.66;77.31;99670.32;1684532;85;27364;-47
2022/11/17 09:08:15;;;;;;;9.93;5.95;;;;;;;0.66;77.27;99678.30;1695856;84;25407;-48
2022/11/17 09:10:41;;;;;;;9.18;6.00;;;;;;;0.64;76.91;99685.75;1684793;85;25786;-47
2022/11/17 09:13:07;;;;;;;8.43;5.67;;;;;;;0.62;76.88;99683.34;1642274;87;26242;-50
2022/11/17 09:15:33;;;;;;;8.55;5.65;;;;;;;0.60;76.80;99676.16;1642324;86;25465;-47
2022/11/17 09:18:01;;;;;;;10.45;6.92;;;;;;;0.60;76.95;99684.68;1642206;87;27339;-47
2022/11/17 09:20:30;;;;;;;10.35;6.90;;;;;;;0.60;76.94;99674.03;1642150;87;25601;-50
2022/11/17 09:23:00;;;;;;;9.28;6.30;;;;;;;0.58;76.92;99670.30;1642131;86;25507;-48
2022/11/17 09:25:28;;;;;;;13.00;6.47;;;;;;;0.56;76.85;99667.06;1642266;85;25657;-47
2022/11/17 09:27:55;;;;;;;10.13;7.03;;;;;;;0.53;76.80;99660.95;1642280;87;25523;-47
2022/11/17 09:30:23;;;;;;;10.23;6.97;;;;;;;0.52;76.91;99661.46;1642270;86;27580;-47
2022/11/17 09:32:50;;;;;;;10.50;6.90;;;;;;;0.51;76.65;99661.20;1642183;87;25594;-46
2022/11/17 09:35:18;;;;;;;11.57;7.72;;;;;;;0.49;76.93;99658.52;1689808;84;25428;-46
2022/11/17 09:37:44;;;;;;;10.43;6.97;;;;;;;0.53;76.89;99665.73;1689751;84;27816;-47
2022/11/17 09:40:15;;;;;;;11.48;7.85;;;;;;;0.56;77.16;99671.05;1689869;84;25669;-46
2022/11/17 09:42:43;;;;;;;9.83;6.92;;;;;;;0.59;77.27;99663.89;1689845;84;27470;-48
2022/11/17 09:45:18;;;;;;;11.08;6.40;;;;;;;0.61;76.96;99664.44;1689749;84;25617;-49
2022/11/17 09:56:00;;;;;;;10.65;6.62;;;;;;;0.61;76.45;99646.34;1764527;80;25393;-46
2022/11/17 09:58:45;;;;;;;10.28;6.60;;;;;;;0.61;76.58;99649.00;1763933;81;28142;-47
2022/11/17 10:01:15;;;;;;;10.08;6.58;;;;;;;0.61;76.54;99647.67;1764214;81;25373;-47
2022/11/17 10:03:45;;;;;;;11.45;7.33;;;;;;;0.62;76.59;99649.28;1764321;81;25564;-46
2022/11/17 10:06:29;;;;;;;10.85;6.58;;;;;;;0.64;76.52;99649.28;1764276;81;25654;-46
2022/11/17 10:09:07;;;;;;;12.20;7.15;;;;;;;0.65;76.24;99640.25;1764294;81;25428;-47
2022/11/17 10:11:38;;;;;;;10.25;6.97;;;;;;;0.66;76.27;99641.05;1763856;81;27905;-47
2022/11/17 10:14:14;;;;;;;11.78;7.72;;;;;;;0.67;75.73;99634.13;1763624;80;25824;-47
2022/11/17 10:16:53;;;;;;;11.25;7.53;;;;;;;0.65;75.64;99632.80;1764156;81;25481;-47
2022/11/17 10:19:29;;;;;;;13.20;7.97;;;;;;;0.65;75.64;99633.59;1764458;80;25610;-46
2022/11/17 10:22:06;;;;;;;10.35;7.28;;;;;;;0.66;75.81;99631.19;1764391;80;25495;-46
2022/11/17 10:24:49;;;;;;;12.47;7.92;;;;;;;0.69;75.52;99637.33;1764252;81;25788;-48
2022/11/17 10:27:26;;;;;;;13.35;8.20;;;;;;;0.67;75.38;99639.45;1764246;81;25395;-47
2022/11/17 10:30:23;;;;;;;12.15;7.33;;;;;;;0.71;75.71;99629.08;1764304;81;25501;-47
2022/11/17 10:32:53;;;;;;;13.40;8.03;;;;;;;0.73;76.04;99623.78;1764260;81;25708;-48
2022/11/17 10:35:27;;;;;;;11.68;7.50;;;;;;;0.82;76.22;99621.42;1764276;81;25627;-48
2022/11/17 10:38:14;;;;;;;22.80;11.00;;;;;;;0.85;75.61;99618.75;1764297;80;27296;-48
2022/11/17 10:40:48;;;;;;;16.40;9.85;;;;;;;0.84;75.47;99623.83;1764003;81;25583;-47
2022/11/17 10:43:31;;;;;;;67.27;28.10;;;;;;;0.89;75.62;99619.85;1764338;80;25492;-47
2022/11/17 10:46:05;;;;;;;48.73;20.15;;;;;;;0.92;75.52;99617.47;1764275;80;26285;-46
2022/11/17 10:48:35;;;;;;;31.15;15.10;;;;;;;0.98;75.39;99616.15;1764311;79;25411;-49
2022/11/17 10:51:19;;;;;;;25.43;12.95;;;;;;;1.00;75.15;99614.02;1764280;81;27324;-46
2022/11/17 10:54:05;;;;;;;14.58;8.83;;;;;;;1.05;75.43;99618.03;1764285;81;25605;-49
2022/11/17 10:56:51;;;;;;;12.20;8.10;;;;;;;1.10;75.28;99620.16;1764312;81;25559;-48
2022/11/17 10:59:43;;;;;;;15.08;8.15;;;;;;;1.15;75.67;99614.06;1745316;81;25603;-47
2022/11/17 11:02:34;;;;;;;9.93;6.65;;;;;;;1.23;75.38;99616.75;1780186;80;25667;-46
2022/11/17 11:05:11;;;;;;;9.83;6.83;;;;;;;1.25;75.08;99607.96;1780224;80;29557;-46
2022/11/17 11:07:39;;;;;;;15.43;7.70;;;;;;;1.29;74.41;99609.02;1780147;80;25601;-47
2022/11/17 11:10:11;;;;;;;12.65;8.70;;;;;;;1.29;74.23;99611.69;1780139;80;25585;-47
2022/11/17 11:13:14;;;;;;;12.10;7.53;;;;;;;1.32;74.47;99609.05;1780082;80;25623;-47
2022/11/17 11:15:44;;;;;;;12.60;8.15;;;;;;;1.34;74.07;99613.03;1780254;79;25467;-47
2022/11/17 11:18:17;;;;;;;13.72;7.08;;;;;;;1.35;73.79;99609.31;1780277;80;27585;-46
2022/11/17 11:20:51;;;;;;;9.43;6.53;;;;;;;1.37;74.00;99612.50;1780140;80;25620;-46
2022/11/17 11:23:50;;;;;;;11.35;7.05;;;;;;;1.41;73.73;99608.78;1780225;80;25423;-46
2022/11/17 11:26:42;;;;;;;12.85;7.28;;;;;;;1.43;73.92;99611.45;1780363;80;25624;-46
2022/11/17 11:29:25;;;;;;;11.05;6.58;;;;;;;1.48;73.84;99604.80;1777124;80;25653;-46
2022/11/17 11:32:03;;;;;;;7.25;5.47;;;;;;;1.48;72.88;99602.14;1756826;81;27314;-47
2022/11/17 11:34:50;;;;;;;11.05;6.83;;;;;;;1.48;72.72;99609.31;1754805;80;25471;-46
2022/11/17 11:37:16;;;;;;;11.43;7.65;;;;;;;1.46;72.34;99606.12;1743799;82;25441;-46
2022/11/17 11:40:24;;;;;;;11.00;6.65;;;;;;;1.45;72.19;99603.20;1731491;82;25633;-46
2022/11/17 11:43:01;;;;;;;10.48;7.05;;;;;;;1.41;71.78;99599.45;1731305;82;25452;-46
2022/11/17 11:45:35;;;;;;;10.78;7.72;;;;;;;1.40;71.77;99599.20;1730422;82;27099;-47
2022/11/17 11:48:24;;;;;;;11.48;7.20;;;;;;;1.40;71.65;99605.32;1731427;82;25606;-47
2022/11/17 11:50:59;;;;;;;11.20;7.43;;;;;;;1.40;71.81;99599.20;1731861;82;25674;-47
2022/11/17 11:53:51;;;;;;;11.08;7.40;;;;;;;1.43;71.79;99593.31;1707072;82;26326;-47
2022/11/17 11:56:25;;;;;;;12.65;6.70;;;;;;;1.45;71.81;99595.20;1739315;82;25563;-47
2022/11/17 11:58:59;;;;;;;8.33;6.40;;;;;;;1.54;71.90;99598.14;1739954;82;27557;-46
2022/11/17 12:01:43;;;;;;;7.75;5.33;;;;;;;1.64;71.12;99607.47;1714952;82;25577;-47
2022/11/17 12:04:33;;;;;;;8.08;5.62;;;;;;;1.93;73.27;99606.94;1739864;82;25506;-48
2022/11/17 12:07:22;;;;;;;7.10;5.20;;;;;;;2.62;74.09;99601.43;1739199;82;25498;-45
2022/11/17 12:10:06;;;;;;;7.37;5.37;;;;;;;2.88;72.27;99598.65;1778186;80;25600;-48
2022/11/17 12:12:38;;;;;;;8.48;5.55;;;;;;;3.27;73.92;99601.91;1778094;80;27394;-49
2022/11/17 12:15:19;;;;;;;9.40;5.75;;;;;;;3.93;75.57;99589.39;1777996;80;25606;-48
2022/11/17 12:18:05;;;;;;;7.97;5.83;;;;;;;4.87;74.75;99595.34;1772262;80;25389;-47
2022/11/17 12:20:43;;;;;;;10.13;5.90;;;;;;;5.75;73.44;99596.99;1778026;80;25687;-46
2022/11/17 12:23:38;;;;;;;7.62;5.67;;;;;;;5.93;69.42;99590.00;1778073;80;25513;-46
2022/11/17 12:26:06;;;;;;;10.58;6.60;;;;;;;6.04;67.74;99591.19;1749613;82;27373;-48
2022/11/17 12:28:39;;;;;;;7.53;5.50;;;;;;;6.47;67.76;99583.69;1749579;82;25626;-49
2022/11/17 12:31:12;;;;;;;8.95;6.03;;;;;;;6.81;66.71;99585.69;1749638;82;25494;-48
2022/11/17 12:34:01;;;;;;;8.55;5.97;;;;;;;6.87;64.36;99577.77;1749472;82;25670;-51
2022/11/17 12:36:31;;;;;;;6.67;5.37;;;;;;;6.67;63.14;99573.05;1749666;82;25592;-47
2022/11/17 12:39:01;;;;;;;5.25;4.60;;;;;;;6.41;61.44;99576.80;1749841;82;27310;-48
2022/11/17 12:41:52;;;;;;;5.55;4.03;;;;;;;5.96;60.51;99576.02;1749311;82;25996;-48
2022/11/17 12:44:44;;;;;;;6.55;5.10;;;;;;;5.59;60.23;99574.20;1749710;82;25651;-48